createdAt,value
2019-01-31T00:00:59.435Z,95990.97
2019-01-31T00:02:02.343Z,96002.16
2019-01-31T00:03:05.202Z,96012.91
2019-01-31T00:04:08.051Z,95998.20
2019-01-31T00:05:10.944Z,96014.31
2019-01-31T00:06:13.773Z,96006.61
2019-01-31T00:07:17.010Z,96010.61
2019-01-31T00:08:19.828Z,96014.06
2019-01-31T00:09:22.527Z,96008.47
2019-01-31T00:10:25.384Z,96008.78
2019-01-31T00:11:30.996Z,96008.78
2019-01-31T00:12:33.983Z,96013.22
2019-01-31T00:13:39.950Z,96011.45
2019-01-31T00:14:43.277Z,96011.45
2019-01-31T00:15:46.230Z,96007.52
2019-01-31T00:16:49.639Z,96012.80
2019-01-31T00:17:52.430Z,96011.52
2019-01-31T00:18:55.130Z,96005.16
2019-01-31T00:19:58.642Z,96012.12
2019-01-31T00:21:01.474Z,96017.95
2019-01-31T00:22:04.188Z,96010.08
2019-01-31T00:23:07.233Z,96010.08
2019-01-31T00:24:09.947Z,96017.77
2019-01-31T00:25:13.266Z,96023.68
2019-01-31T00:26:16.579Z,96019.98
2019-01-31T00:27:19.391Z,96016.38
2019-01-31T00:28:22.212Z,96024.64
2019-01-31T00:29:25.332Z,96024.64
2019-01-31T00:30:28.322Z,96028.95
2019-01-31T00:31:31.196Z,96028.95
2019-01-31T00:32:34.547Z,96022.41
2019-01-31T00:33:37.374Z,96033.34
2019-01-31T00:34:40.067Z,96024.59
2019-01-31T00:35:42.823Z,96038.91
2019-01-31T00:36:45.697Z,96034.25
2019-01-31T00:37:48.852Z,96034.25
2019-01-31T00:38:56.937Z,96037.76
2019-01-31T00:39:56.328Z,96033.47
2019-01-31T00:40:59.215Z,96039.09
2019-01-31T00:42:02.166Z,96046.02
2019-01-31T00:43:04.871Z,96038.91
2019-01-31T00:44:08.107Z,96047.73
2019-01-31T00:45:10.797Z,96042.39
2019-01-31T00:46:13.700Z,96035.71
2019-01-31T00:47:16.610Z,96049.59
2019-01-31T00:48:19.319Z,96049.59
2019-01-31T00:49:22.159Z,96048.33
2019-01-31T00:50:25.839Z,96044.81
2019-01-31T00:51:29.928Z,96050.72
2019-01-31T00:52:32.688Z,96047.80
2019-01-31T00:53:36.029Z,96037.11
2019-01-31T00:54:38.757Z,96056.12
2019-01-31T00:55:41.645Z,96045.50
2019-01-31T00:56:44.672Z,96048.23
2019-01-31T00:57:49.923Z,96047.67
2019-01-31T00:58:54.273Z,96046.40
2019-01-31T00:59:58.146Z,96061.59
2019-01-31T01:01:00.817Z,96052.77
2019-01-31T01:02:03.580Z,96034.69
2019-01-31T01:03:06.997Z,96038.51
2019-01-31T01:04:09.838Z,96051.62
2019-01-31T01:05:12.522Z,96054.91
2019-01-31T01:06:15.367Z,96047.98
2019-01-31T01:07:18.146Z,96053.61
2019-01-31T01:08:23.168Z,96045.13
2019-01-31T01:09:26.138Z,96054.66
2019-01-31T01:10:29.027Z,96054.66
2019-01-31T01:11:31.797Z,96047.05
2019-01-31T01:12:34.520Z,96051.13
2019-01-31T01:13:37.756Z,96044.23
2019-01-31T01:14:40.631Z,96050.53
2019-01-31T01:15:43.927Z,96051.13
2019-01-31T01:16:47.219Z,96043.91
2019-01-31T01:17:49.856Z,96049.72
2019-01-31T01:18:52.989Z,96049.72
2019-01-31T01:19:55.822Z,96051.06
2019-01-31T01:20:58.613Z,96043.48
2019-01-31T01:22:01.936Z,96051.98
2019-01-31T01:23:04.820Z,96051.98
2019-01-31T01:24:07.534Z,96053.63
2019-01-31T01:25:10.290Z,96046.21
2019-01-31T01:26:14.589Z,96051.61
2019-01-31T01:27:17.395Z,96059.87
2019-01-31T01:28:20.454Z,96052.39
2019-01-31T01:29:23.264Z,96052.39
2019-01-31T01:30:26.515Z,96060.18
2019-01-31T01:31:29.434Z,96058.41
2019-01-31T01:32:32.757Z,96048.28
2019-01-31T01:33:35.800Z,96048.28
2019-01-31T01:34:38.907Z,96055.73
2019-01-31T01:35:41.796Z,96049.43
2019-01-31T01:36:44.715Z,96045.77
2019-01-31T01:37:47.531Z,96049.55
2019-01-31T01:38:50.473Z,96049.36
2019-01-31T01:39:53.269Z,96048.08
2019-01-31T01:40:56.519Z,96048.33
2019-01-31T01:41:59.730Z,96048.33
2019-01-31T01:43:02.675Z,96049.23
2019-01-31T01:44:05.571Z,96047.34
2019-01-31T01:45:08.565Z,96051.34
2019-01-31T01:46:11.842Z,96047.34
2019-01-31T01:47:15.105Z,96048.39
2019-01-31T01:48:18.078Z,96048.39
2019-01-31T01:49:21.345Z,96050.67
2019-01-31T01:50:24.070Z,96048.01
2019-01-31T01:51:27.216Z,96049.81
2019-01-31T01:52:30.567Z,96050.67
2019-01-31T01:53:33.833Z,96050.67
2019-01-31T01:54:36.676Z,96041.45
2019-01-31T01:55:39.444Z,96048.84
2019-01-31T01:56:42.175Z,96051.09
2019-01-31T01:57:45.210Z,96053.52
2019-01-31T01:58:47.987Z,96047.38
2019-01-31T01:59:50.961Z,96048.95
2019-01-31T02:00:53.659Z,96048.95
2019-01-31T02:01:56.443Z,96052.66
2019-01-31T02:02:59.129Z,96047.38
2019-01-31T02:04:01.861Z,96047.38
2019-01-31T02:05:04.726Z,96050.59
2019-01-31T02:06:07.707Z,96048.77
2019-01-31T02:07:10.499Z,96049.02
2019-01-31T02:08:13.201Z,96044.29
2019-01-31T02:09:15.870Z,96044.29
2019-01-31T02:10:18.723Z,96034.34
2019-01-31T02:11:21.465Z,96034.64
2019-01-31T02:12:25.861Z,96028.55
2019-01-31T02:13:28.556Z,96028.03
2019-01-31T02:14:31.249Z,96030.14
2019-01-31T02:15:34.035Z,96019.33
2019-01-31T02:16:43.499Z,96031.22
2019-01-31T02:17:46.177Z,96032.34
2019-01-31T02:18:49.152Z,96032.61
2019-01-31T02:19:51.907Z,96036.45
2019-01-31T02:20:54.694Z,96034.20
2019-01-31T02:21:57.573Z,96028.28
2019-01-31T02:23:01.513Z,96038.14
2019-01-31T02:24:04.199Z,96033.42
2019-01-31T02:25:07.189Z,96033.42
2019-01-31T02:26:10.288Z,96025.22
2019-01-31T02:27:13.205Z,96029.17
2019-01-31T02:28:15.913Z,96026.56
2019-01-31T02:29:18.603Z,96024.97
2019-01-31T02:30:21.315Z,96019.95
2019-01-31T02:31:24.369Z,96015.20
2019-01-31T02:32:27.296Z,96013.39
2019-01-31T02:33:30.030Z,96014.73
2019-01-31T02:34:32.923Z,96014.73
2019-01-31T02:35:35.770Z,96007.55
2019-01-31T02:36:38.477Z,96007.55
2019-01-31T02:37:42.687Z,96011.03
2019-01-31T02:38:45.605Z,96009.20
2019-01-31T02:39:48.856Z,96004.64
2019-01-31T02:40:51.615Z,96003.86
2019-01-31T02:41:54.762Z,96003.86
2019-01-31T02:42:57.540Z,96001.69
2019-01-31T02:44:02.932Z,96001.69
2019-01-31T02:45:05.890Z,95998.66
2019-01-31T02:46:08.769Z,96007.33
2019-01-31T02:47:11.605Z,96007.33
2019-01-31T02:48:14.322Z,96004.91
2019-01-31T02:49:17.064Z,96005.08
2019-01-31T02:50:20.275Z,96009.75
2019-01-31T02:51:23.085Z,96013.89
2019-01-31T02:52:25.801Z,96010.56
2019-01-31T02:53:28.671Z,96014.36
2019-01-31T02:54:31.362Z,96012.83
2019-01-31T02:55:34.290Z,96006.28
2019-01-31T02:56:37.407Z,96009.55
2019-01-31T02:57:40.092Z,96011.83
2019-01-31T02:58:42.868Z,96012.33
2019-01-31T02:59:45.819Z,96007.36
2019-01-31T03:00:48.569Z,95997.44
2019-01-31T03:01:51.373Z,96004.05
2019-01-31T03:02:54.359Z,96002.67
2019-01-31T03:03:57.145Z,95999.70
2019-01-31T03:04:59.831Z,96005.67
2019-01-31T03:06:02.638Z,96008.39
2019-01-31T03:07:11.368Z,95999.89
2019-01-31T03:08:14.004Z,95999.89
2019-01-31T03:09:17.164Z,96004.78
2019-01-31T03:10:19.879Z,95992.30
2019-01-31T03:11:22.593Z,95997.53
2019-01-31T03:12:25.522Z,95997.53
2019-01-31T03:13:28.411Z,95998.02
2019-01-31T03:14:31.099Z,96001.97
2019-01-31T03:15:34.193Z,96003.30
2019-01-31T03:16:37.032Z,96003.30
2019-01-31T03:17:39.763Z,95991.30
2019-01-31T03:18:42.648Z,95999.14
2019-01-31T03:19:45.313Z,95993.11
2019-01-31T03:20:48.134Z,95998.44
2019-01-31T03:21:51.323Z,95997.91
2019-01-31T03:22:54.370Z,95995.47
2019-01-31T03:23:57.067Z,95997.41
2019-01-31T03:24:59.745Z,96000.38
2019-01-31T03:26:02.429Z,95997.72
2019-01-31T03:27:05.732Z,95997.72
2019-01-31T03:28:08.803Z,95993.46
2019-01-31T03:29:11.751Z,95998.24
2019-01-31T03:30:14.517Z,96003.62
2019-01-31T03:31:17.284Z,95999.58
2019-01-31T03:32:20.219Z,95997.98
2019-01-31T03:33:23.179Z,95998.59
2019-01-31T03:34:26.174Z,95997.92
2019-01-31T03:35:28.958Z,95995.64
2019-01-31T03:36:31.881Z,95996.97
2019-01-31T03:37:34.699Z,95998.00
2019-01-31T03:38:37.546Z,95998.00
2019-01-31T03:39:41.559Z,95991.53
2019-01-31T03:40:44.469Z,95988.71
2019-01-31T03:41:47.789Z,95983.88
2019-01-31T03:42:50.631Z,95990.09
2019-01-31T03:43:53.365Z,95988.09
2019-01-31T03:44:56.371Z,95991.31
2019-01-31T03:45:59.016Z,95987.54
2019-01-31T03:47:02.082Z,95992.55
2019-01-31T03:48:04.882Z,95988.49
2019-01-31T03:49:08.317Z,95992.70
2019-01-31T03:50:11.037Z,95994.34
2019-01-31T03:51:14.257Z,95992.59
2019-01-31T03:52:19.579Z,95997.06
2019-01-31T03:53:22.671Z,95994.15
2019-01-31T03:54:25.840Z,95999.27
2019-01-31T03:55:28.680Z,95994.34
2019-01-31T03:56:31.561Z,95997.21
2019-01-31T03:57:34.365Z,95999.87
2019-01-31T03:58:37.211Z,95997.57
2019-01-31T03:59:40.261Z,95999.68
2019-01-31T04:00:42.931Z,95999.68
2019-01-31T04:01:45.802Z,96002.80
2019-01-31T04:02:48.460Z,96002.80
2019-01-31T04:03:51.120Z,96002.20
2019-01-31T04:04:53.900Z,95996.87
2019-01-31T04:05:57.054Z,95995.48
2019-01-31T04:07:02.861Z,95992.77
2019-01-31T04:08:09.318Z,95993.27
2019-01-31T04:09:14.363Z,95991.68
2019-01-31T04:10:19.185Z,95991.68
2019-01-31T04:11:21.620Z,95993.42
2019-01-31T04:12:25.399Z,95993.42
2019-01-31T04:13:28.306Z,95993.98
2019-01-31T04:14:32.072Z,95988.83
2019-01-31T04:15:34.828Z,95996.05
2019-01-31T04:16:37.623Z,95996.05
2019-01-31T04:17:40.299Z,95996.55
2019-01-31T04:18:43.379Z,95996.55
2019-01-31T04:19:46.084Z,95995.55
2019-01-31T04:20:51.090Z,95990.66
2019-01-31T04:21:53.623Z,95990.56
2019-01-31T04:22:56.359Z,95994.61
2019-01-31T04:23:59.105Z,95993.38
2019-01-31T04:25:02.323Z,95993.69
2019-01-31T04:26:10.173Z,95993.69
2019-01-31T04:27:13.087Z,95992.16
2019-01-31T04:28:15.809Z,95992.16
2019-01-31T04:29:18.627Z,95997.94
2019-01-31T04:30:21.288Z,95997.73
2019-01-31T04:31:24.404Z,95992.11
2019-01-31T04:32:27.282Z,95992.11
2019-01-31T04:33:30.146Z,95992.55
2019-01-31T04:34:32.798Z,95993.89
2019-01-31T04:35:35.465Z,95991.17
2019-01-31T04:36:38.212Z,95992.93
2019-01-31T04:37:41.319Z,95993.79
2019-01-31T04:38:44.202Z,95988.68
2019-01-31T04:39:47.155Z,95992.66
2019-01-31T04:40:49.851Z,95990.88
2019-01-31T04:41:52.554Z,95993.23
2019-01-31T04:42:55.542Z,95997.53
2019-01-31T04:43:58.556Z,95990.62
2019-01-31T04:45:01.230Z,95990.52
2019-01-31T04:46:04.170Z,95986.83
2019-01-31T04:47:09.138Z,95985.34
2019-01-31T04:48:12.506Z,95988.00
2019-01-31T04:49:15.156Z,95981.09
2019-01-31T04:50:20.069Z,95976.89
2019-01-31T04:51:23.210Z,95986.88
2019-01-31T04:52:26.465Z,95978.98
2019-01-31T04:53:29.125Z,95977.66
2019-01-31T04:54:31.785Z,95977.66
2019-01-31T04:55:34.940Z,95984.06
2019-01-31T04:56:38.003Z,95979.81
2019-01-31T04:57:43.765Z,95985.99
2019-01-31T04:58:46.845Z,95992.72
2019-01-31T04:59:50.017Z,95996.23
2019-01-31T05:00:52.726Z,96000.48
2019-01-31T05:01:55.474Z,95993.63
2019-01-31T05:02:58.713Z,95987.95
2019-01-31T05:04:01.372Z,95985.79
2019-01-31T05:05:04.417Z,95989.28
2019-01-31T05:06:07.291Z,95989.28
2019-01-31T05:07:09.975Z,95993.13
2019-01-31T05:08:12.652Z,95984.84
2019-01-31T05:09:15.925Z,95987.80
2019-01-31T05:10:18.570Z,95988.50
2019-01-31T05:11:21.363Z,95990.36
2019-01-31T05:12:24.613Z,95990.36
2019-01-31T05:13:27.492Z,95991.89
2019-01-31T05:14:30.139Z,95991.89
2019-01-31T05:15:35.081Z,95988.59
2019-01-31T05:16:37.773Z,95987.27
2019-01-31T05:17:41.014Z,95982.63
2019-01-31T05:18:43.652Z,95985.48
2019-01-31T05:19:46.524Z,95984.94
2019-01-31T05:20:49.218Z,95985.19
2019-01-31T05:21:52.447Z,95987.85
2019-01-31T05:22:55.312Z,95987.02
2019-01-31T05:23:58.189Z,95987.02
2019-01-31T05:25:00.999Z,95983.13
2019-01-31T05:26:03.840Z,95983.35
2019-01-31T05:27:06.641Z,95986.83
2019-01-31T05:28:09.864Z,95986.77
2019-01-31T05:29:15.594Z,95977.30
2019-01-31T05:30:18.401Z,95984.78
2019-01-31T05:31:21.323Z,95984.21
2019-01-31T05:32:24.152Z,95986.06
2019-01-31T05:33:26.985Z,95986.32
2019-01-31T05:34:30.204Z,95985.95
2019-01-31T05:35:33.097Z,95983.33
2019-01-31T05:36:35.955Z,95983.33
2019-01-31T05:37:41.322Z,95981.19
2019-01-31T05:38:44.691Z,95986.92
2019-01-31T05:39:47.499Z,95978.52
2019-01-31T05:40:55.580Z,95979.84
2019-01-31T05:41:55.311Z,95974.17
2019-01-31T05:42:58.221Z,95974.17
2019-01-31T05:44:01.110Z,95975.45
2019-01-31T05:45:03.932Z,95974.98
2019-01-31T05:46:06.753Z,95974.98
2019-01-31T05:47:10.000Z,95967.60
2019-01-31T05:48:13.387Z,95967.85
2019-01-31T05:49:16.184Z,95962.77
2019-01-31T05:50:19.035Z,95969.13
2019-01-31T05:51:21.909Z,95970.27
2019-01-31T05:52:24.758Z,95966.47
2019-01-31T05:53:28.006Z,95966.47
2019-01-31T05:54:31.415Z,95963.75
2019-01-31T05:55:34.237Z,95963.22
2019-01-31T05:57:41.131Z,95966.00
2019-01-31T05:58:44.143Z,95966.00
2019-01-31T05:59:47.314Z,95963.08
2019-01-31T06:00:50.568Z,95968.63
2019-01-31T06:01:53.508Z,95964.42
2019-01-31T06:03:02.432Z,95963.29
2019-01-31T06:04:05.173Z,95963.23
2019-01-31T06:05:08.005Z,95963.23
2019-01-31T06:06:12.206Z,95962.88
2019-01-31T06:07:15.074Z,95961.75
2019-01-31T06:08:17.997Z,95952.74
2019-01-31T06:09:20.871Z,95952.74
2019-01-31T06:10:23.705Z,95953.75
2019-01-31T06:11:26.560Z,95952.27
2019-01-31T06:12:29.814Z,95955.66
2019-01-31T06:13:32.710Z,95954.47
2019-01-31T06:14:35.382Z,95960.55
2019-01-31T06:15:38.669Z,95955.55
2019-01-31T06:16:41.488Z,95952.69
2019-01-31T06:17:46.306Z,95952.69
2019-01-31T06:18:53.619Z,95957.44
2019-01-31T06:19:56.846Z,95961.08
2019-01-31T06:21:00.243Z,95957.03
2019-01-31T06:22:03.064Z,95956.39
2019-01-31T06:23:05.929Z,95961.84
2019-01-31T06:24:08.723Z,95961.84
2019-01-31T06:25:12.155Z,95958.75
2019-01-31T06:26:16.351Z,95958.50
2019-01-31T06:27:19.132Z,95960.64
2019-01-31T06:28:24.734Z,95960.64
2019-01-31T06:29:27.565Z,95959.22
2019-01-31T11:42:48.627Z,95944.19
2019-01-31T11:43:51.496Z,95944.19
2019-01-31T11:44:56.299Z,95941.03
2019-01-31T11:45:59.421Z,95945.81
2019-01-31T11:47:04.214Z,95945.81
2019-01-31T11:48:08.916Z,95942.05
2019-01-31T11:49:11.595Z,95935.82
2019-01-31T11:50:14.500Z,95949.25
2019-01-31T11:51:17.342Z,95936.35
2019-01-31T11:52:20.200Z,95941.62
2019-01-31T11:53:23.501Z,95941.62
2019-01-31T11:54:26.647Z,95935.27
2019-01-31T11:55:29.625Z,95939.58
2019-01-31T11:56:32.697Z,95939.90
2019-01-31T11:57:37.733Z,95936.73
2019-01-31T11:58:42.820Z,95933.75
2019-01-31T11:59:48.080Z,95932.16
2019-01-31T12:00:53.149Z,95939.16
2019-01-31T12:01:55.955Z,95936.66
2019-01-31T12:02:58.816Z,95931.96
2019-01-31T12:04:01.712Z,95935.23
2019-01-31T12:05:07.599Z,95935.23
2019-01-31T12:06:16.526Z,95932.80
2019-01-31T12:07:19.597Z,95934.52
2019-01-31T12:08:22.497Z,95929.84
2019-01-31T12:09:25.339Z,95931.50
2019-01-31T12:10:28.952Z,95935.58
2019-01-31T12:11:31.839Z,95934.17
2019-01-31T12:12:37.642Z,95945.45
2019-01-31T12:13:40.728Z,95937.80
2019-01-31T12:14:43.637Z,95937.80
2019-01-31T12:15:46.515Z,95935.62
2019-01-31T12:16:49.396Z,95937.30
2019-01-31T12:17:52.596Z,95927.35
2019-01-31T12:18:55.513Z,95940.61
2019-01-31T12:19:59.913Z,95940.61
2019-01-31T12:21:03.332Z,95925.42
2019-01-31T12:22:06.642Z,95925.80
2019-01-31T12:23:09.493Z,95925.80
2019-01-31T12:24:16.590Z,95935.44
2019-01-31T12:25:17.281Z,95932.73
2019-01-31T12:26:20.174Z,95946.02
2019-01-31T12:27:23.025Z,95931.70
2019-01-31T12:28:28.644Z,95918.59
2019-01-31T12:29:33.836Z,95918.59
2019-01-31T12:30:37.250Z,95929.53
2019-01-31T12:31:46.603Z,95929.53
2019-01-31T12:32:54.259Z,95934.67
2019-01-31T12:33:57.613Z,95933.05
2019-01-31T12:35:01.257Z,95923.31
2019-01-31T12:36:07.923Z,95937.13
2019-01-31T12:37:10.793Z,95937.13
2019-01-31T12:38:13.992Z,95936.18
2019-01-31T12:39:16.775Z,95931.29
2019-01-31T12:40:19.750Z,95931.29
2019-01-31T12:41:22.534Z,95932.52
2019-01-31T12:42:25.472Z,95937.66
2019-01-31T12:43:35.410Z,95937.66
2019-01-31T12:44:41.020Z,95934.39
2019-01-31T12:45:43.945Z,95934.39
2019-01-31T12:46:46.802Z,95930.80
2019-01-31T12:47:50.981Z,95931.85
2019-01-31T12:48:53.777Z,95931.85
2019-01-31T12:49:58.209Z,95921.27
2019-01-31T12:51:04.342Z,95921.20
2019-01-31T12:52:08.128Z,95922.39
2019-01-31T12:53:12.100Z,95934.95
2019-01-31T12:54:20.932Z,95934.95
2019-01-31T12:55:23.774Z,95928.23
2019-01-31T12:56:26.674Z,95924.64
2019-01-31T12:57:33.028Z,95925.88
2019-01-31T12:58:38.351Z,95931.72
2019-01-31T12:59:41.327Z,95931.72
2019-01-31T13:00:44.133Z,95931.16
2019-01-31T13:01:46.970Z,95913.57
2019-01-31T13:02:49.886Z,95913.57
2019-01-31T13:03:53.173Z,95930.55
2019-01-31T13:04:56.053Z,95933.61
2019-01-31T13:06:01.348Z,95926.86
2019-01-31T13:07:04.217Z,95926.86
2019-01-31T13:08:06.995Z,95918.00
2019-01-31T13:09:09.809Z,95918.00
2019-01-31T13:10:14.395Z,95929.18
2019-01-31T13:11:26.274Z,95918.31
2019-01-31T13:12:29.543Z,95928.76
2019-01-31T13:13:34.033Z,95916.59
2019-01-31T13:14:38.616Z,95920.78
2019-01-31T13:15:41.470Z,95923.27
2019-01-31T13:16:44.471Z,95924.44
2019-01-31T13:17:47.366Z,95920.56
2019-01-31T13:18:50.264Z,95906.65
2019-01-31T13:19:57.897Z,95925.00
2019-01-31T13:21:00.714Z,95921.63
2019-01-31T13:22:06.054Z,95920.67
2019-01-31T13:23:09.300Z,95915.82
2019-01-31T13:24:14.828Z,95909.63
2019-01-31T13:25:19.869Z,95926.86
2019-01-31T13:26:22.706Z,95926.86
2019-01-31T13:27:25.964Z,95918.84
2019-01-31T13:28:31.717Z,95916.24
2019-01-31T13:29:33.916Z,95913.67
2019-01-31T13:30:36.893Z,95911.25
2019-01-31T13:31:39.776Z,95917.61
2019-01-31T13:32:42.834Z,95916.59
2019-01-31T13:33:46.786Z,95917.41
2019-01-31T13:34:50.080Z,95916.80
2019-01-31T13:35:53.198Z,95916.31
2019-01-31T13:36:58.275Z,95916.31
2019-01-31T13:38:03.743Z,95921.66
2019-01-31T13:39:08.715Z,95921.66
2019-01-31T13:40:13.388Z,95914.20
2019-01-31T13:41:16.429Z,95905.92
2019-01-31T13:42:19.602Z,95910.56
2019-01-31T13:43:22.641Z,95913.48
2019-01-31T13:44:25.452Z,95912.62
2019-01-31T13:45:28.390Z,95909.48
2019-01-31T13:46:34.437Z,95909.48
2019-01-31T13:47:38.703Z,95913.08
2019-01-31T13:48:44.386Z,95901.27
2019-01-31T13:49:50.102Z,95910.31
2019-01-31T13:50:53.969Z,95912.06
2019-01-31T13:51:58.949Z,95913.33
2019-01-31T13:53:02.101Z,95913.33
2019-01-31T13:54:06.757Z,95905.94
2019-01-31T13:55:10.753Z,95909.64
2019-01-31T13:56:17.202Z,95909.64
2019-01-31T13:57:22.297Z,95911.89
2019-01-31T13:58:29.897Z,95896.92
2019-01-31T13:59:34.292Z,95896.92
2019-01-31T14:00:39.791Z,95899.33
2019-01-31T14:01:43.187Z,95901.37
2019-01-31T14:02:46.021Z,95905.41
2019-01-31T14:03:48.911Z,95905.41
2019-01-31T14:04:51.754Z,95900.28
2019-01-31T14:05:54.655Z,95900.28
2019-01-31T14:06:57.818Z,95903.48
2019-01-31T14:08:09.934Z,95897.92
2019-01-31T14:09:13.517Z,95908.83
2019-01-31T14:10:18.191Z,95908.83
2019-01-31T14:11:21.476Z,95905.60
2019-01-31T14:12:24.463Z,95902.61
2019-01-31T14:13:31.563Z,95902.61
2019-01-31T14:14:39.396Z,95904.61
2019-01-31T14:15:42.724Z,95912.06
2019-01-31T14:16:48.242Z,95911.12
2019-01-31T14:17:58.092Z,95922.91
2019-01-31T14:19:10.372Z,95922.91
2019-01-31T14:20:14.236Z,95929.77
2019-01-31T14:22:48.719Z,95909.80
2019-01-31T14:23:52.898Z,95925.05
2019-01-31T14:24:56.143Z,95925.05
2019-01-31T14:25:59.394Z,95916.02
2019-01-31T14:27:02.709Z,95917.53
2019-01-31T14:28:06.913Z,95907.44
2019-01-31T14:29:09.910Z,95912.65
2019-01-31T14:30:12.757Z,95912.65
2019-01-31T14:31:18.053Z,95901.47
2019-01-31T14:32:21.437Z,95901.47
2019-01-31T14:33:27.482Z,95904.69
2019-01-31T14:34:33.833Z,95909.02
2019-01-31T14:35:36.763Z,95907.61
2019-01-31T14:36:39.840Z,95900.75
2019-01-31T14:37:45.749Z,95900.75
2019-01-31T14:38:48.764Z,95905.73
2019-01-31T14:39:53.862Z,95912.03
2019-01-31T14:40:58.040Z,95910.38
2019-01-31T14:42:00.976Z,95911.38
2019-01-31T14:43:03.798Z,95911.62
2019-01-31T14:44:06.669Z,95910.84
2019-01-31T14:45:13.109Z,95912.34
2019-01-31T14:46:21.891Z,95911.02
2019-01-31T14:47:27.937Z,95901.65
2019-01-31T14:48:31.271Z,95895.02
2019-01-31T14:49:34.192Z,95898.39
2019-01-31T14:50:45.016Z,95898.39
2019-01-31T14:51:50.265Z,95906.27
2019-01-31T14:52:57.076Z,95902.11
2019-01-31T14:54:00.490Z,95899.51
2019-01-31T14:55:03.519Z,95888.80
2019-01-31T14:56:07.529Z,95888.80
2019-01-31T14:57:13.813Z,95892.20
2019-01-31T14:58:16.720Z,95893.95
2019-01-31T14:59:19.570Z,95892.61
2019-01-31T15:00:25.552Z,95899.58
2019-01-31T15:01:28.626Z,95887.39
2019-01-31T15:02:33.167Z,95887.30
2019-01-31T15:03:38.978Z,95889.30
2019-01-31T15:04:43.338Z,95894.48
2019-01-31T15:05:49.064Z,95897.70
2019-01-31T15:06:54.988Z,95884.25
2019-01-31T15:07:57.855Z,95886.28
2019-01-31T15:09:04.121Z,95887.24
2019-01-31T15:10:24.993Z,95887.24
2019-01-31T15:11:31.191Z,95886.06
2019-01-31T15:12:39.025Z,95892.03
2019-01-31T15:13:42.197Z,95887.24
2019-01-31T15:14:45.151Z,95885.66
2019-01-31T15:15:49.489Z,95881.97
2019-01-31T15:16:52.402Z,95882.67
2019-01-31T15:17:55.998Z,95894.22
2019-01-31T15:19:01.264Z,95886.69
2019-01-31T15:20:04.622Z,95890.13
2019-01-31T15:21:11.878Z,95890.13
2019-01-31T15:22:15.341Z,95890.84
2019-01-31T15:23:18.120Z,95897.05
2019-01-31T15:24:24.331Z,95897.05
2019-01-31T15:25:30.912Z,95893.28
2019-01-31T15:26:43.102Z,95894.38
2019-01-31T15:27:49.161Z,95891.02
2019-01-31T15:28:52.065Z,95888.09
2019-01-31T15:29:54.925Z,95901.22
2019-01-31T15:30:58.104Z,95888.78
2019-01-31T15:32:00.969Z,95888.78
2019-01-31T15:33:04.896Z,95901.23
2019-01-31T15:34:08.303Z,95898.47
2019-01-31T15:35:11.350Z,95899.81
2019-01-31T15:36:14.321Z,95894.61
2019-01-31T15:37:17.213Z,95898.63
2019-01-31T15:38:20.338Z,95891.77
2019-01-31T15:39:23.486Z,95897.44
2019-01-31T15:40:26.381Z,95899.19
2019-01-31T15:41:29.464Z,95900.13
2019-01-31T15:42:34.774Z,95900.13
2019-01-31T15:43:38.727Z,95896.51
2019-01-31T15:44:43.485Z,95896.51
2019-01-31T15:45:50.898Z,95890.07
2019-01-31T15:46:53.422Z,95895.34
2019-01-31T15:47:56.526Z,95895.95
2019-01-31T15:49:02.499Z,95892.86
2019-01-31T15:50:08.371Z,95894.84
2019-01-31T15:51:12.336Z,95900.98
2019-01-31T15:52:17.926Z,95901.71
2019-01-31T15:53:22.259Z,95898.09
2019-01-31T15:54:25.275Z,95903.48
2019-01-31T15:55:29.666Z,95901.13
2019-01-31T15:56:34.390Z,95896.34
2019-01-31T15:57:39.973Z,95896.34
2019-01-31T15:59:00.878Z,95893.59
2019-01-31T16:00:03.729Z,95888.56
2019-01-31T16:01:06.638Z,95881.78
2019-01-31T16:02:09.480Z,95890.75
2019-01-31T16:03:14.665Z,95890.44
2019-01-31T16:04:20.177Z,95890.44
2019-01-31T16:05:23.319Z,95886.98
2019-01-31T16:06:26.267Z,95886.98
2019-01-31T16:07:29.168Z,95893.91
2019-01-31T16:08:33.855Z,95895.70
2019-01-31T16:09:36.770Z,95892.58
2019-01-31T16:10:41.034Z,95895.53
2019-01-31T16:11:46.773Z,95895.53
2019-01-31T16:12:53.192Z,95895.42
2019-01-31T16:13:58.175Z,95889.58
2019-01-31T16:15:02.409Z,95893.37
2019-01-31T16:16:09.465Z,95892.59
2019-01-31T16:17:12.641Z,95891.77
2019-01-31T16:18:15.884Z,95883.82
2019-01-31T16:19:22.554Z,95883.82
2019-01-31T16:20:25.541Z,95885.23
2019-01-31T16:21:34.480Z,95889.17
2019-01-31T16:22:37.699Z,95881.31
2019-01-31T16:23:41.211Z,95883.30
2019-01-31T16:24:44.558Z,95883.30
2019-01-31T16:25:50.271Z,95885.48
2019-01-31T16:26:56.451Z,95876.76
2019-01-31T16:27:59.359Z,95869.34
2019-01-31T16:29:13.801Z,95879.19
2019-01-31T16:30:18.961Z,95877.12
2019-01-31T16:31:21.818Z,95870.19
2019-01-31T16:32:24.616Z,95876.27
2019-01-31T16:33:27.437Z,95870.75
2019-01-31T16:34:30.401Z,95876.34
2019-01-31T16:35:33.759Z,95868.57
2019-01-31T16:36:42.975Z,95872.86
2019-01-31T16:37:46.163Z,95874.77
2019-01-31T16:38:51.465Z,95874.77
2019-01-31T16:39:54.432Z,95869.49
2019-01-31T16:40:57.416Z,95866.98
2019-01-31T16:42:04.849Z,95866.19
2019-01-31T16:43:09.247Z,95864.07
2019-01-31T16:44:15.110Z,95868.16
2019-01-31T16:45:26.975Z,95872.58
2019-01-31T16:46:25.648Z,95870.15
2019-01-31T16:47:28.793Z,95869.42
2019-01-31T16:48:33.346Z,95869.25
2019-01-31T16:49:36.281Z,95864.39
2019-01-31T16:50:39.529Z,95864.39
2019-01-31T16:51:45.333Z,95867.84
2019-01-31T16:52:47.154Z,95867.84
2019-01-31T16:53:50.009Z,95867.38
2019-01-31T16:54:57.310Z,95870.66
2019-01-31T16:56:02.899Z,95862.56
2019-01-31T16:57:07.623Z,95877.02
2019-01-31T16:58:10.636Z,95866.50
2019-01-31T16:59:16.775Z,95865.97
2019-01-31T17:00:19.611Z,95871.39
2019-01-31T17:01:22.594Z,95864.39
2019-01-31T17:02:28.957Z,95864.39
2019-01-31T17:03:32.069Z,95870.27
2019-01-31T17:04:37.740Z,95861.89
2019-01-31T17:05:40.663Z,95859.98
2019-01-31T17:06:46.289Z,95862.73
2019-01-31T17:07:49.104Z,95862.73
2019-01-31T17:08:52.090Z,95859.50
2019-01-31T17:10:03.179Z,95863.58
2019-01-31T17:11:05.971Z,95855.28
2019-01-31T17:12:12.462Z,95862.17
2019-01-31T17:13:18.129Z,95855.28
2019-01-31T17:14:22.236Z,95857.70
2019-01-31T17:15:25.696Z,95856.91
2019-01-31T17:16:28.535Z,95855.56
2019-01-31T17:17:31.417Z,95859.50
2019-01-31T17:18:34.271Z,95854.16
2019-01-31T17:19:37.632Z,95854.16
2019-01-31T17:20:40.876Z,95854.55
2019-01-31T17:21:44.789Z,95852.36
2019-01-31T17:22:47.621Z,95849.44
2019-01-31T17:24:01.126Z,95860.63
2019-01-31T17:25:02.939Z,95853.20
2019-01-31T17:26:08.700Z,95853.20
2019-01-31T17:27:15.783Z,95855.56
2019-01-31T17:28:18.640Z,95848.11
2019-01-31T17:29:22.330Z,95852.36
2019-01-31T17:42:51.237Z,95844.51
2019-01-31T17:44:00.185Z,95844.51
2019-01-31T17:45:08.497Z,95843.00
2019-01-31T17:46:16.057Z,95843.00
2019-01-31T17:47:21.896Z,95840.58
2019-01-31T17:48:32.019Z,95842.77
2019-01-31T17:49:35.188Z,95840.09
2019-01-31T17:50:39.368Z,95836.08
2019-01-31T17:51:44.858Z,95836.85
2019-01-31T17:52:47.792Z,95836.85
2019-01-31T17:53:53.750Z,95833.97
2019-01-31T17:54:57.698Z,95833.97
2019-01-31T17:56:04.329Z,95828.91
2019-01-31T17:57:07.287Z,95825.46